Flight Track Log - Related Links

Times and Time Zones

All times are in EDT time to prevent confusion due to time zone crossing. See the UAL395 flight status page for this flight to view local times or setup timezone preferences in your user account.

Time Position Orientation Groundspeed Altitude Reporting Facility
EDT Latitude Longitude Course Direction KTS MPH feet Rate Location/Type
Mon 08:30:46 AM 29.9572 -95.3417 276° West 164 189 1,000  Level Houston Center
Mon 08:32:06 AM 29.9536 -95.4169 267° West 223 257 3,400 2,186 Climbing Houston Center
Mon 08:32:55 AM 29.9647 -95.4797 282° West 240 276 5,700 2,769 Climbing Houston Center
Mon 08:33:00 AM 30.0229 -95.6958 277° West  Level FlightAware Approximate
Mon 08:34:00 AM 30.0348 -95.8175 276° West  Level FlightAware Approximate
Mon 08:35:00 AM 30.0450 -95.9394 276° West  Level FlightAware Approximate
Mon 08:35:00 AM 30.0234 -95.7002 277° West  Level FlightAware Approximate
Mon 08:36:00 AM 30.0674 -96.0580 276° West  Level FlightAware Approximate
Mon 08:36:00 AM 30.0156 -95.7564 277° West 316 364 14,200  Level Houston Center
Mon 08:37:02 AM 30.0344 -95.8617 282° West 335 386 17,800 3,048 Climbing Houston Center
Mon 08:38:04 AM 30.0556 -95.9772 282° West 370 426 20,500 2,537 Climbing Houston Center
Mon 08:39:05 AM 30.0792 -96.1106 282° West 380 437 23,000 1,816 Climbing Houston Center
Mon 08:41:09 AM 30.1161 -96.3589 280° West 397 457 26,100 1,548 Climbing Houston Center
Mon 08:42:11 AM 30.1367 -96.4944 280° West 402 463 27,800 1,362 Climbing Houston Center
Mon 08:44:14 AM 30.1764 -96.7539 280° West 408 470 30,300 1,265 Climbing Houston Center
Mon 08:45:16 AM 30.1953 -96.8833 280° West 405 466 31,700 1,306 Climbing Houston Center
Mon 08:46:18 AM 30.2147 -97.0117 280° West 400 460 33,000 1,512 Climbing Houston Center
Mon 08:47:19 AM 30.2361 -97.1600 280° West 397 457 34,800 1,268 Climbing Houston Center
Mon 08:48:21 AM 30.2539 -97.2817 280° West 383 441 35,600 581 Climbing Houston Center
Mon 08:49:23 AM 30.2719 -97.4033 280° West 380 437 36,000 194 Climbing Houston Center
Mon 08:50:25 AM 30.2889 -97.5258 279° West 379 436 36,000  Level Houston Center
Mon 08:52:28 AM 30.3317 -97.7692 282° West 379 436 36,000  Level Houston Center
Mon 08:53:30 AM 30.3928 -97.8742 304° West 386 444 36,000  Level Houston Center
Mon 08:55:34 AM 30.5136 -98.0817 304° West 383 441 36,000  Level Houston Center
Mon 08:56:35 AM 30.5756 -98.1869 304° West 388 447 36,000  Level Houston Center
Mon 08:57:37 AM 30.6356 -98.2917 304° West 386 444 36,000  Level Houston Center
Mon 08:59:00 AM 30.7306 -98.4279 300° West  Level FlightAware Approximate
Mon 08:59:41 AM 30.7675 -98.5189 300° West 385 443 36,000  Level Houston Center
Mon 09:00:43 AM 30.8292 -98.6244 304° West 389 448 36,000  Level Houston Center
Mon 09:01:44 AM 30.8872 -98.7286 303° West 382 440 36,000  Level Houston Center
Mon 09:04:27 AM 31.0467 -99.0064 304° West 384 442 36,000  Level Fort Worth Center
Mon 09:04:50 AM 31.0675 -99.0433 303° West 386 444 36,000  Level Houston Center
Mon 09:05:52 AM 31.1269 -99.1494 303° West 387 445 36,000  Level Houston Center
Mon 09:08:27 AM 31.2808 -99.4211 304° West 390 449 36,000  Level Fort Worth Center
Mon 09:08:57 AM 31.3114 -99.4778 302° West 382 440 36,000 -65 Level Houston Center
Mon 09:09:59 AM 31.3694 -99.5822 303° West 383 441 35,900 -48 Descending Houston Center
Mon 09:11:01 AM 31.4267 -99.6833 304° West 377 434 35,900 68 Level Houston Center
Mon 09:11:27 AM 31.4486 -99.7317 298° West 386 444 36,000 70 Climbing Fort Worth Center
Mon 09:12:27 AM 31.5133 -99.8453 304° West 386 444 36,000  Level Fort Worth Center
Mon 09:13:27 AM 31.5697 -99.9467 303° West 386 444 36,000 -50 Level Fort Worth Center
Mon 09:14:27 AM 31.6261 -100.0483 303° West 386 444 35,900  Descending Fort Worth Center
Mon 09:15:27 AM 31.6864 -100.1600 302° West 386 444 36,000 50 Climbing Fort Worth Center
Mon 09:16:27 AM 31.7447 -100.2642 303° West 386 444 36,000  Level Fort Worth Center
Mon 09:18:27 AM 31.8628 -100.4806 303° West 392 451 36,000  Level Fort Worth Center
Mon 09:20:11 AM 31.9594 -100.6483 304° West 381 438 36,000  Level Albuquerque Center
Mon 09:20:27 AM 31.9783 -100.6928 297° West 392 451 36,000  Level Fort Worth Center
Mon 09:21:27 AM 32.0381 -100.8003 303° West 392 451 36,000  Level Fort Worth Center
Mon 09:23:13 AM 32.1422 -100.9869 303° West 392 451 36,000  Level Albuquerque Center
Mon 09:24:27 AM 32.2147 -101.1283 301° West 398 458 36,000  Level Fort Worth Center
Mon 09:25:27 AM 32.2761 -101.2392 303° West 403 464 36,000  Level Fort Worth Center
Mon 09:27:17 AM 32.3783 -101.4311 302° West 403 464 36,000 100 Level Albuquerque Center
Mon 09:28:27 AM 32.4514 -101.5714 302° West 397 457 36,300 396 Climbing Fort Worth Center
Mon 09:30:19 AM 32.5581 -101.7697 303° West 411 473 37,200 500 Climbing Albuquerque Center
Mon 09:31:27 AM 32.6336 -101.9153 302° West 409 471 37,800 375 Climbing Fort Worth Center
Mon 09:32:27 AM 32.6939 -102.0319 302° West 414 476 38,000 68 Climbing Fort Worth Center
Mon 09:34:23 AM 32.8017 -102.2333 303° West 406 467 38,000  Level Albuquerque Center
Mon 09:35:24 AM 32.8617 -102.3503 301° West 408 470 38,000  Level Albuquerque Center
Mon 09:36:27 AM 32.9331 -102.4897 301° West 419 482 38,000  Level Fort Worth Center
Mon 09:37:27 AM 32.9911 -102.5994 302° West 414 476 38,000  Level Fort Worth Center
Mon 09:38:27 AM 33.0531 -102.7144 303° West 419 482 38,000  Level Fort Worth Center
Mon 09:39:27 AM 33.1128 -102.8347 301° West 419 482 38,000  Level Fort Worth Center
Mon 09:40:27 AM 33.1722 -102.9500 302° West 419 482 38,000  Level Fort Worth Center
Mon 09:42:31 AM 33.2972 -103.2014 301° West 413 475 38,000  Level Albuquerque Center
Mon 09:43:32 AM 33.3561 -103.3183 301° West 413 475 38,000  Level Albuquerque Center
Mon 09:44:33 AM 33.4167 -103.4364 302° West 416 479 38,000  Level Albuquerque Center
Mon 09:46:00 AM 33.4955 -103.5912 301° West  Level FlightAware Approximate
Mon 09:48:37 AM 33.6608 -103.9222 301° West 413 475 38,000  Level Albuquerque Center
Mon 09:49:39 AM 33.7189 -104.0400 301° West 413 475 38,000  Level Albuquerque Center
Mon 09:50:40 AM 33.7775 -104.1600 300° West 417 480 38,000  Level Albuquerque Center
Mon 09:51:41 AM 33.8414 -104.2881 301° West 416 479 38,000  Level Albuquerque Center
Mon 09:52:42 AM 33.8994 -104.4069 300° West 414 476 38,000  Level Albuquerque Center
Mon 09:53:00 AM 33.8724 -104.3433 301° West  Level FlightAware Approximate
Mon 09:53:43 AM 33.9583 -104.5272 301° West 418 481 38,000  Level Albuquerque Center
Mon 09:54:00 AM 33.9259 -104.4512 301° West  Level FlightAware Approximate
Mon 09:54:44 AM 34.0189 -104.6508 301° West 422 486 38,000  Level Albuquerque Center
Mon 09:55:45 AM 34.0800 -104.7739 301° West 423 487 38,000  Level Albuquerque Center
Mon 09:56:46 AM 34.1406 -104.8989 300° West 425 489 38,000  Level Albuquerque Center
Mon 09:57:48 AM 34.2008 -105.0247 300° West 426 490 38,000  Level Albuquerque Center
Mon 09:58:49 AM 34.2622 -105.1511 300° West 429 494 38,000  Level Albuquerque Center
Mon 09:59:50 AM 34.3228 -105.2775 300° West 430 495 38,000  Level Albuquerque Center
Mon 10:00:51 AM 34.3836 -105.4025 301° West 428 493 38,000  Level Albuquerque Center
Mon 10:01:52 AM 34.4433 -105.5286 300° West 427 491 38,000  Level Albuquerque Center
Mon 10:02:53 AM 34.5036 -105.6544 300° West 427 491 38,000  Level Albuquerque Center
Mon 10:03:55 AM 34.5642 -105.7808 300° West 427 491 38,000  Level Albuquerque Center
Mon 10:05:57 AM 34.6833 -106.0339 300° West 427 491 38,000  Level Albuquerque Center
Mon 10:06:59 AM 34.7417 -106.1614 299° West 427 491 38,000  Level Albuquerque Center
Mon 10:08:00 AM 34.7968 -106.2781 300° West  Level FlightAware Approximate
Mon 10:09:01 AM 34.8617 -106.4183 300° West 424 488 38,000  Level Albuquerque Center
Mon 10:10:03 AM 34.9261 -106.5606 299° West 426 490 38,000  Level Albuquerque Center
Mon 10:12:05 AM 35.0333 -106.7992 299° West 421 484 38,000  Level Albuquerque Center
Mon 10:13:07 AM 35.0736 -106.9478 288° West 412 474 38,000  Level Albuquerque Center
Mon 10:14:08 AM 35.1022 -107.0806 285° West 419 482 38,000  Level Albuquerque Center
Mon 10:16:11 AM 35.1450 -107.3592 281° West 422 486 38,000  Level Albuquerque Center
Mon 10:18:00 AM 35.1553 -107.6015 277° West  Level FlightAware Approximate
Mon 10:19:16 AM 35.1903 -107.8053 277° West 426 490 38,000  Level Albuquerque Center
Mon 10:21:00 AM 35.2117 -108.0346 277° West  Level FlightAware Approximate
Mon 10:23:22 AM 35.2486 -108.4019 276° West 426 490 38,000  Level Albuquerque Center
Mon 10:24:24 AM 35.2617 -108.5392 277° West 425 489 38,000  Level Albuquerque Center
Mon 10:25:26 AM 35.2775 -108.6981 277° West 421 484 38,000  Level Albuquerque Center
Mon 10:26:28 AM 35.2900 -108.8364 276° West 424 488 38,000  Level Albuquerque Center
Mon 10:28:00 AM 35.2937 -108.9620 276° West  Level FlightAware Approximate
Mon 10:28:00 AM 35.3059 -109.0399 276° West  Level FlightAware Approximate
Mon 10:29:33 AM 35.3297 -109.2758 275° West 426 490 38,000  Level Albuquerque Center
Mon 10:30:35 AM 35.3436 -109.4367 276° West 423 487 38,000  Level Albuquerque Center
Mon 10:31:36 AM 35.3550 -109.5736 276° West 422 486 38,000  Level Albuquerque Center
Mon 10:32:38 AM 35.3694 -109.7350 276° West 425 489 38,000  Level Albuquerque Center
Mon 10:33:40 AM 35.3800 -109.8742 275° West 426 490 38,000  Level Albuquerque Center
Mon 10:34:42 AM 35.3919 -110.0333 275° West 422 486 38,000  Level Albuquerque Center
Mon 10:35:00 AM 35.3745 -109.9700 275° West  Level FlightAware Approximate
Mon 10:35:43 AM 35.4028 -110.1689 276° West 420 483 38,000  Level Albuquerque Center
Mon 10:37:24 AM 35.4206 -110.4131 275° West 422 486 38,000 -161 Level Los Angeles Center
Mon 10:38:49 AM 35.4342 -110.6011 275° West 422 486 37,500 -484 Descending Albuquerque Center
Mon 10:40:30 AM 35.4536 -110.8386 276° West 421 484 36,500 -581 Descending Los Angeles Center
Mon 10:40:53 AM 35.4569 -110.8961 274° West 420 483 36,300 -357 Descending Albuquerque Center
Mon 10:41:54 AM 35.4689 -111.0533 275° West 415 478 36,000 -1,232 Descending Albuquerque Center
Mon 10:43:58 AM 35.4906 -111.3550 275° West 430 495 32,500 -1,935 Descending Albuquerque Center
Mon 10:45:00 AM 35.5000 -111.5017 275° West 451 519 30,000 -932 Descending Albuquerque Center
Mon 10:46:39 AM 35.5167 -111.7322 275° West 427 491 30,000  Level Los Angeles Center
Mon 10:47:41 AM 35.5250 -111.8750 274° West 422 486 30,000  Level Los Angeles Center
Mon 10:48:05 AM 35.5289 -111.9331 275° West 424 488 30,000 -488 Level Albuquerque Center
Mon 10:49:07 AM 35.5383 -112.0750 275° West 423 487 29,300 -1,091 Descending Albuquerque Center
Mon 10:49:44 AM 35.5458 -112.1839 275° West 410 472 28,200 -1,645 Descending Los Angeles Center
Mon 10:50:09 AM 35.5492 -112.2375 274° West 405 466 27,600 -1,465 Descending Albuquerque Center
Mon 10:51:10 AM 35.5575 -112.3706 274° West 398 458 26,100 -1,333 Descending Albuquerque Center
Mon 10:51:48 AM 35.5633 -112.4500 275° West 390 449 25,400 -1,043 Descending Los Angeles Center
Mon 10:53:51 AM 35.5789 -112.7158 274° West 375 432 23,300 -973 Descending Los Angeles Center
Mon 10:54:53 AM 35.5861 -112.8417 274° West 369 425 22,400 -919 Descending Los Angeles Center
Mon 10:55:55 AM 35.5933 -112.9647 274° West 364 419 21,400 -878 Descending Los Angeles Center
Mon 10:56:56 AM 35.5978 -113.0622 273° West 357 411 20,600 -683 Descending Los Angeles Center
Mon 10:57:58 AM 35.6083 -113.2319 274° West 354 407 20,000 -290 Descending Los Angeles Center
Mon 10:59:00 AM 35.6136 -113.3367 274° West 359 413 20,000  Level Los Angeles Center
Mon 11:00:01 AM 35.6219 -113.4831 274° West 359 413 20,000 -422 Level Los Angeles Center
Mon 11:02:05 AM 35.6522 -113.7281 279° West 364 419 18,700 -774 Descending Los Angeles Center
Mon 11:03:07 AM 35.6689 -113.8483 280° West 360 414 17,600 -973 Descending Los Angeles Center
Mon 11:05:10 AM 35.7011 -114.0783 280° West 344 396 15,700 -965 Descending Los Angeles Center
Mon 11:05:30 AM 35.7053 -114.1233 277° West 337 388 15,300 -1,548 Descending Los Angeles Center
Mon 11:06:12 AM 35.7200 -114.2131 281° West 338 389 14,100 -1,823 Descending Los Angeles Center
Mon 11:06:49 AM 35.7306 -114.2819 281° West 341 392 12,900 -1,432 Descending Los Angeles Center
Mon 11:08:00 AM 35.7795 -114.3987 345° North  Level FlightAware Approximate
Mon 11:08:47 AM 35.8214 -114.4450 345° North 307 353 10,400  Level Los Angeles Center
Mon 11:09:40 AM 35.8792 -114.5106 317° Northwest 304 350 8,700 -1,200 Descending Los Angeles Center
Mon 11:10:47 AM 35.9456 -114.5944 314° West 300 345 8,000 -412 Descending Los Angeles Center
Mon 11:11:22 AM 35.9622 -114.6250 304° West 300 345 8,000  Level Los Angeles Center
Mon 11:11:47 AM 35.9806 -114.6839 291° West 290 334 8,000 -871 Level Los Angeles Center
Mon 11:12:24 AM 36.0003 -114.7336 296° West 291 335 7,100 -1,163 Descending Los Angeles Center
Mon 11:14:27 AM 36.0656 -114.8936 297° West 289 333 4,900 -904 Descending Los Angeles Center
Mon 11:14:50 AM 36.0719 -114.9408 280° West 238 274 4,900 -387 Level Los Angeles Center
Mon 11:15:29 AM 36.0736 -114.9814 273° West 239 275 4,500 -891 Descending Los Angeles Center
Mon 11:16:31 AM 36.0747 -115.0461 271° West 208 239 3,400 -1,007 Descending Los Angeles Center
Mon 11:17:52 AM 36.0744 -115.1208 270° West 142 163 2,100 -677 Descending Los Angeles Center
Mon 11:18:35 AM 36.0742 -115.1425 269° West 153 176 2,000 -140 Descending Los Angeles Center

Login

Don't have an account? Register now (free) for customized features, flight alerts, and more!